createdAt,value
2022-12-11T00:02:09.062Z,101186.28
2022-12-11T00:04:35.523Z,101176.72
2022-12-11T00:07:01.905Z,101178.78
2022-12-11T00:09:29.567Z,101176.09
2022-12-11T00:11:55.959Z,101178.47
2022-12-11T00:14:22.327Z,101164.53
2022-12-11T00:16:48.811Z,101179.75
2022-12-11T00:19:15.416Z,101176.53
2022-12-11T00:21:41.721Z,101172.19
2022-12-11T00:24:08.128Z,101171.97
2022-12-11T00:26:34.461Z,101166.25
2022-12-11T00:29:00.852Z,101155.38
2022-12-11T00:31:27.265Z,101162.41
2022-12-11T00:33:53.625Z,101157.72
2022-12-11T00:36:24.225Z,101164.34
2022-12-11T00:38:51.116Z,101172.88
2022-12-11T00:41:17.924Z,101172.94
2022-12-11T00:43:44.379Z,101175.66
2022-12-11T00:46:11.693Z,101154.34
2022-12-11T00:48:38.448Z,101176.09
2022-12-11T00:51:05.090Z,101168.88
2022-12-11T00:53:31.511Z,101169.56
2022-12-11T00:55:57.846Z,101180.72
2022-12-11T00:58:24.551Z,101165.78
2022-12-11T01:00:50.933Z,101162.38
2022-12-11T01:03:17.460Z,101155.50
2022-12-11T01:05:51.452Z,101171.00
2022-12-11T01:08:17.811Z,101154.81
2022-12-11T01:10:44.242Z,101174.63
2022-12-11T01:13:11.193Z,101169.06
2022-12-11T01:15:43.779Z,101158.44
2022-12-11T01:18:14.661Z,101159.00
2022-12-11T01:20:42.130Z,101166.91
2022-12-11T01:23:08.470Z,101159.13
2022-12-11T01:25:36.318Z,101156.28
2022-12-11T01:28:02.797Z,101163.91
2022-12-11T01:30:29.089Z,101163.63
2022-12-11T01:32:55.555Z,101166.09
2022-12-11T01:35:22.094Z,101169.63
2022-12-11T01:37:48.738Z,101164.72
2022-12-11T01:40:17.670Z,101164.72
2022-12-11T01:42:44.415Z,101180.34
2022-12-11T01:45:31.973Z,101176.69
2022-12-11T01:48:03.722Z,101169.09
2022-12-11T01:50:33.399Z,101166.53
2022-12-11T01:52:59.920Z,101161.38
2022-12-11T01:55:26.585Z,101169.16
2022-12-11T01:57:53.864Z,101155.84
2022-12-11T02:00:21.506Z,101155.97
2022-12-11T02:02:47.939Z,101158.28
2022-12-11T02:05:14.290Z,101159.38
2022-12-11T02:07:46.267Z,101160.72
2022-12-11T02:10:13.171Z,101156.53
2022-12-11T02:12:53.866Z,101150.69
2022-12-11T02:15:23.209Z,101164.69
2022-12-11T02:18:14.303Z,101167.00
2022-12-11T02:20:48.214Z,101152.84
2022-12-11T02:23:17.554Z,101156.44
2022-12-11T02:26:12.138Z,101159.44
2022-12-11T02:29:00.628Z,101153.34
2022-12-11T02:31:38.683Z,101156.16
2022-12-11T02:34:28.673Z,101158.75
2022-12-11T02:36:59.062Z,101146.66
2022-12-11T02:39:27.751Z,101142.72
2022-12-11T02:41:55.925Z,101148.03
2022-12-11T02:44:30.251Z,101148.84
2022-12-11T02:46:58.191Z,101136.59
2022-12-11T02:49:26.038Z,101138.78
2022-12-11T02:51:54.364Z,101137.03
2022-12-11T02:54:27.373Z,101140.97
2022-12-11T02:57:01.642Z,101152.66
2022-12-11T02:59:35.836Z,101132.00
2022-12-11T03:02:03.673Z,101141.38
2022-12-11T03:04:30.302Z,101127.66
2022-12-11T03:06:59.729Z,101133.66
2022-12-11T03:09:27.867Z,101118.72
2022-12-11T03:11:54.415Z,101116.94
2022-12-11T03:14:20.966Z,101135.59
2022-12-11T03:17:07.575Z,101124.34
2022-12-11T03:19:47.552Z,101120.81
2022-12-11T03:22:25.099Z,101120.25
2022-12-11T03:25:00.622Z,101116.63
2022-12-11T03:27:55.544Z,101107.13
2022-12-11T03:30:23.665Z,101110.25
2022-12-11T03:32:54.620Z,101124.34
2022-12-11T03:35:26.349Z,101123.25
2022-12-11T03:37:54.293Z,101121.25
2022-12-11T03:40:23.202Z,101120.41
2022-12-11T03:42:52.527Z,101138.06
2022-12-11T03:45:20.993Z,101122.47
2022-12-11T03:47:48.101Z,101117.16
2022-12-11T03:50:17.277Z,101126.25
2022-12-11T03:52:47.336Z,101131.03
2022-12-11T03:55:16.414Z,101118.63
2022-12-11T03:57:43.291Z,101116.88
2022-12-11T04:00:13.487Z,101122.31
2022-12-11T04:02:41.048Z,101125.72
2022-12-11T04:05:08.561Z,101121.63
2022-12-11T04:07:35.477Z,101116.91
2022-12-11T04:10:02.287Z,101124.34
2022-12-11T04:12:28.620Z,101118.78
2022-12-11T04:14:54.951Z,101117.69
2022-12-11T04:17:21.331Z,101110.38
2022-12-11T04:19:47.639Z,101119.34
2022-12-11T04:22:15.677Z,101118.13
2022-12-11T04:24:42.000Z,101101.69
2022-12-11T04:27:08.345Z,101099.78
2022-12-11T04:29:34.806Z,101109.72
2022-12-11T04:32:01.117Z,101096.00
2022-12-11T04:34:27.441Z,101095.47
2022-12-11T04:36:53.735Z,101098.72
2022-12-11T04:39:20.114Z,101105.78
2022-12-11T04:41:46.447Z,101086.78
2022-12-11T04:44:12.744Z,101093.03
2022-12-11T04:46:39.166Z,101097.22
2022-12-11T04:49:05.488Z,101106.06
2022-12-11T04:51:31.845Z,101096.28
2022-12-11T04:53:58.864Z,101095.06
2022-12-11T04:56:25.177Z,101083.78
2022-12-11T04:58:51.519Z,101093.41
2022-12-11T05:01:21.301Z,101094.09
2022-12-11T05:03:48.132Z,101085.56
2022-12-11T05:06:14.714Z,101087.31
2022-12-11T05:08:42.941Z,101079.84
2022-12-11T05:11:11.614Z,101077.69
2022-12-11T05:13:38.659Z,101082.31
2022-12-11T05:16:05.900Z,101059.09
2022-12-11T05:18:32.384Z,101074.59
2022-12-11T05:21:00.043Z,101076.19
2022-12-11T05:23:27.397Z,101069.69
2022-12-11T05:25:59.311Z,101059.22
2022-12-11T05:28:29.251Z,101075.66
2022-12-11T05:31:01.226Z,101075.78
2022-12-11T05:33:28.550Z,101081.50
2022-12-11T05:35:55.550Z,101065.63
2022-12-11T05:38:22.414Z,101065.59
2022-12-11T05:41:05.806Z,101076.22
2022-12-11T05:43:34.173Z,101075.53
2022-12-11T05:46:13.973Z,101084.06
2022-12-11T05:48:40.932Z,101086.38
2022-12-11T05:51:08.408Z,101087.03
2022-12-11T05:53:36.443Z,101080.53
2022-12-11T05:56:08.946Z,101087.88
2022-12-11T05:58:35.263Z,101082.97
2022-12-11T06:01:02.416Z,101085.69
2022-12-11T06:03:28.855Z,101085.00
2022-12-11T06:05:55.165Z,101080.41
2022-12-11T06:08:21.572Z,101071.16
2022-12-11T06:10:48.697Z,101085.97
2022-12-11T06:13:15.895Z,101080.38
2022-12-11T06:15:42.569Z,101075.22
2022-12-11T06:18:08.984Z,101090.44
2022-12-11T06:20:35.619Z,101088.53
2022-12-11T06:23:02.398Z,101070.91
2022-12-11T06:25:29.750Z,101068.16
2022-12-11T06:27:56.323Z,101075.91
2022-12-11T06:30:23.233Z,101073.84
2022-12-11T06:33:04.939Z,101073.47
2022-12-11T06:35:31.247Z,101084.75
2022-12-11T06:37:57.790Z,101077.00
2022-12-11T06:40:24.159Z,101077.69
2022-12-11T06:42:50.457Z,101072.09
2022-12-11T06:45:16.871Z,101066.56
2022-12-11T06:47:43.132Z,101077.25
2022-12-11T06:50:09.849Z,101065.31
2022-12-11T06:52:36.210Z,101050.78
2022-12-11T06:55:02.629Z,101073.31
2022-12-11T06:57:28.922Z,101079.16
2022-12-11T06:59:55.284Z,101079.44
2022-12-11T07:02:21.684Z,101075.91
2022-12-11T07:04:53.382Z,101091.28
2022-12-11T07:07:21.383Z,101078.22
2022-12-11T07:09:47.690Z,101089.25
2022-12-11T07:12:14.193Z,101090.19
2022-12-11T07:14:40.627Z,101087.72
2022-12-11T07:17:06.986Z,101100.13
2022-12-11T07:19:33.493Z,101093.56
2022-12-11T07:21:59.826Z,101102.94
2022-12-11T07:24:26.312Z,101108.53
2022-12-11T07:26:52.811Z,101093.44
2022-12-11T07:29:19.335Z,101099.56
2022-12-11T07:31:45.920Z,101093.88
2022-12-11T07:34:13.710Z,101105.13
2022-12-11T07:36:40.136Z,101090.47
2022-12-11T07:39:06.500Z,101115.19
2022-12-11T07:41:33.105Z,101100.50
2022-12-11T07:44:00.782Z,101094.13
2022-12-11T07:46:29.606Z,101114.34
2022-12-11T07:48:56.168Z,101118.31
2022-12-11T07:51:25.073Z,101111.94
2022-12-11T07:53:52.350Z,101110.03
2022-12-11T07:56:19.337Z,101106.63
2022-12-11T07:58:46.786Z,101122.41
2022-12-11T08:01:19.198Z,101102.00
2022-12-11T08:03:45.926Z,101111.78
2022-12-11T08:06:12.778Z,101105.16
2022-12-11T08:08:40.098Z,101093.19
2022-12-11T08:11:09.628Z,101100.78
2022-12-11T08:13:36.326Z,101097.16
2022-12-11T08:16:07.657Z,101093.59
2022-12-11T08:18:35.086Z,101096.31
2022-12-11T08:21:28.038Z,101100.69
2022-12-11T08:23:55.024Z,101088.88
2022-12-11T08:26:24.346Z,101087.22
2022-12-11T08:28:51.424Z,101112.34
2022-12-11T08:31:18.890Z,101116.41
2022-12-11T08:33:45.768Z,101124.56
2022-12-11T08:36:14.537Z,101112.91
2022-12-11T08:38:41.582Z,101113.84
2022-12-11T08:41:22.634Z,101116.56
2022-12-11T08:43:49.714Z,101125.00
2022-12-11T08:46:16.121Z,101122.78
2022-12-11T08:48:43.231Z,101122.13
2022-12-11T08:51:13.500Z,101100.63
2022-12-11T08:53:39.916Z,101106.63
2022-12-11T08:56:13.522Z,101129.69
2022-12-11T08:58:40.047Z,101123.63
2022-12-11T09:01:12.288Z,101105.53
2022-12-11T09:03:40.019Z,101112.63
2022-12-11T09:06:12.173Z,101109.06
2022-12-11T09:08:39.182Z,101097.81
2022-12-11T09:11:07.612Z,101098.75
2022-12-11T09:13:34.025Z,101103.13
2022-12-11T09:16:00.352Z,101108.41
2022-12-11T09:18:26.866Z,101090.09
2022-12-11T09:21:02.658Z,101112.63
2022-12-11T09:23:29.210Z,101091.69
2022-12-11T09:25:55.681Z,101098.50
2022-12-11T09:28:22.479Z,101084.22
2022-12-11T09:30:48.920Z,101098.63
2022-12-11T09:33:15.431Z,101081.91
2022-12-11T09:35:41.663Z,101101.22
2022-12-11T09:38:08.094Z,101102.16
2022-12-11T09:40:34.367Z,101105.03
2022-12-11T09:43:09.149Z,101110.84
2022-12-11T09:45:35.505Z,101097.13
2022-12-11T09:48:02.360Z,101112.34
2022-12-11T09:50:32.823Z,101102.69
2022-12-11T09:53:32.422Z,101109.34
2022-12-11T09:56:11.276Z,101088.44
2022-12-11T09:59:05.415Z,101109.59
2022-12-11T10:01:43.887Z,101105.53
2022-12-11T10:04:10.161Z,101105.13
2022-12-11T10:06:43.481Z,101100.63
2022-12-11T10:09:22.458Z,101112.56
2022-12-11T10:11:58.313Z,101103.59
2022-12-11T10:14:46.519Z,101114.75
2022-12-11T10:17:21.416Z,101113.69
2022-12-11T10:19:48.632Z,101117.44
2022-12-11T10:22:24.550Z,101110.25
2022-12-11T10:25:13.472Z,101108.88
2022-12-11T10:27:40.883Z,101113.13
2022-12-11T10:30:15.212Z,101102.38
2022-12-11T10:33:12.000Z,101105.28
2022-12-11T10:36:10.499Z,101098.47
2022-12-11T10:38:45.365Z,101089.81
2022-12-11T10:41:16.455Z,101086.25
2022-12-11T10:43:45.996Z,101086.25
2022-12-11T10:46:25.457Z,101087.75
2022-12-11T10:48:56.854Z,101094.25
2022-12-11T10:51:43.895Z,101099.19
2022-12-11T10:54:39.522Z,101090.09
2022-12-11T10:57:08.850Z,101082.50
2022-12-11T10:59:44.242Z,101076.38
2022-12-11T11:02:25.517Z,101081.41
2022-12-11T11:04:53.406Z,101085.47
2022-12-11T11:07:25.503Z,101078.69
2022-12-11T11:10:05.231Z,101082.88
2022-12-11T11:12:47.461Z,101082.75
2022-12-11T11:15:19.231Z,101078.13
2022-12-11T11:17:54.544Z,101079.75
2022-12-11T11:20:27.173Z,101072.69
2022-12-11T11:22:56.934Z,101065.25
2022-12-11T11:25:26.430Z,101056.28
2022-12-11T11:27:56.405Z,101044.47
2022-12-11T11:30:24.803Z,101056.69
2022-12-11T11:32:54.637Z,101043.50
2022-12-11T11:35:24.366Z,101054.38
2022-12-11T11:38:02.614Z,101064.94
2022-12-11T11:40:37.859Z,101054.50
2022-12-11T11:43:18.890Z,101045.28
2022-12-11T11:45:56.520Z,101049.47
2022-12-11T11:48:33.613Z,101054.78
2022-12-11T11:51:07.850Z,101051.94
2022-12-11T11:53:38.592Z,101038.47
2022-12-11T11:56:29.194Z,101049.47
2022-12-11T11:59:03.456Z,101037.66
2022-12-11T12:01:30.360Z,101042.28
2022-12-11T12:03:57.495Z,101019.88
2022-12-11T12:06:47.464Z,101031.28
2022-12-11T12:09:33.971Z,101030.03
2022-12-11T12:12:24.733Z,101039.81
2022-12-11T12:15:15.505Z,101028.13
2022-12-11T12:17:56.314Z,101037.38
2022-12-11T12:20:34.424Z,101036.00
2022-12-11T12:23:11.388Z,101027.03
2022-12-11T12:25:43.920Z,101031.38
2022-12-11T12:28:48.266Z,101029.34
2022-12-11T12:31:39.628Z,101017.91
2022-12-11T12:34:15.015Z,101024.84
2022-12-11T12:37:27.354Z,101026.47
2022-12-11T12:40:14.038Z,101012.88
2022-12-11T12:42:59.437Z,101026.19
2022-12-11T12:45:46.455Z,101014.66
2022-12-11T12:48:12.867Z,101014.00
2022-12-11T12:50:43.612Z,101025.91
2022-12-11T12:53:17.646Z,101019.56
2022-12-11T12:55:45.658Z,101024.03
2022-12-11T12:58:31.152Z,101027.31
2022-12-11T13:01:15.151Z,101028.53
2022-12-11T13:03:50.864Z,101033.53
2022-12-11T13:06:39.137Z,101027.31
2022-12-11T13:09:25.012Z,101037.34
2022-12-11T13:11:54.301Z,101029.50
2022-12-11T13:14:20.540Z,101030.72
2022-12-11T13:16:49.458Z,101017.28
2022-12-11T13:19:24.632Z,101030.16
2022-12-11T13:22:06.312Z,101032.75
2022-12-11T13:24:34.182Z,101029.50
2022-12-11T13:27:25.783Z,101014.69
2022-12-11T13:29:52.675Z,101031.00
2022-12-11T13:32:19.001Z,101026.38
2022-12-11T13:34:56.376Z,101029.91
2022-12-11T13:37:36.593Z,101045.53
2022-12-11T13:40:08.820Z,101037.13
2022-12-11T13:42:44.093Z,101026.81
2022-12-11T13:45:22.831Z,101030.19
2022-12-11T13:47:49.606Z,101019.19
2022-12-11T13:50:25.059Z,101026.41
2022-12-11T13:52:56.105Z,101038.75
2022-12-11T13:55:30.932Z,101031.81
2022-12-11T13:57:57.925Z,101033.72
2022-12-11T14:00:27.045Z,101019.63
2022-12-11T14:02:58.236Z,101028.69
2022-12-11T14:05:24.985Z,101039.31
2022-12-11T14:07:57.958Z,101011.88
2022-12-11T14:10:26.812Z,101031.41
2022-12-11T14:12:59.496Z,101026.53
2022-12-11T14:15:28.067Z,101024.66
2022-12-11T14:17:55.734Z,101031.41
2022-12-11T14:20:28.257Z,101031.69
2022-12-11T14:23:06.054Z,101037.41
2022-12-11T14:25:32.402Z,101032.09
2022-12-11T14:27:58.733Z,101033.31
2022-12-11T14:30:28.016Z,101019.34
2022-12-11T14:32:58.290Z,101036.72
2022-12-11T14:35:38.393Z,101026.97
2022-12-11T14:38:17.983Z,101032.13
2022-12-11T14:40:48.824Z,101023.28
2022-12-11T14:43:23.015Z,101036.59
2022-12-11T14:45:53.905Z,101044.59
2022-12-11T14:48:26.199Z,101047.19
2022-12-11T14:50:55.046Z,101031.72
2022-12-11T14:53:28.619Z,101036.75
2022-12-11T14:55:57.735Z,101042.44
2022-12-11T14:58:26.322Z,101041.34
2022-12-11T15:01:03.384Z,101044.72
2022-12-11T15:03:35.688Z,101043.13
2022-12-11T15:06:21.173Z,101031.56
2022-12-11T15:08:47.488Z,101046.63
2022-12-11T15:11:16.632Z,101026.13
2022-12-11T15:13:54.520Z,101054.50
2022-12-11T15:16:22.989Z,101037.28
2022-12-11T15:18:51.326Z,101041.47
2022-12-11T15:21:19.214Z,101027.34
2022-12-11T15:23:45.483Z,101052.09
2022-12-11T15:26:12.021Z,101030.91
2022-12-11T15:28:39.359Z,101042.81
2022-12-11T15:31:27.577Z,101049.34
2022-12-11T15:33:54.481Z,101046.78
2022-12-11T15:36:33.338Z,101055.47
2022-12-11T15:38:59.693Z,101048.00
2022-12-11T15:41:26.282Z,101070.25
2022-12-11T15:43:59.249Z,101051.25
2022-12-11T15:46:26.220Z,101063.31
2022-12-11T15:48:52.708Z,101062.25
2022-12-11T15:51:19.104Z,101060.50
2022-12-11T15:53:45.535Z,101044.06
2022-12-11T15:56:15.496Z,101068.34
2022-12-11T15:58:44.162Z,101061.56
2022-12-11T16:01:11.039Z,101062.66
2022-12-11T16:03:37.387Z,101042.44
2022-12-11T16:06:03.997Z,101054.22
2022-12-11T16:08:30.416Z,101055.59
2022-12-11T16:10:56.802Z,101072.56
2022-12-11T16:13:23.198Z,101065.75
2022-12-11T16:15:51.121Z,101052.19
2022-12-11T16:18:20.935Z,101057.06
2022-12-11T16:20:47.652Z,101073.25
2022-12-11T16:23:14.767Z,101067.28
2022-12-11T16:25:42.722Z,101072.56
2022-12-11T16:28:11.843Z,101060.19
2022-12-11T16:30:38.854Z,101065.38
2022-12-11T16:33:12.003Z,101069.97
2022-12-11T16:35:39.197Z,101049.34
2022-12-11T16:38:05.635Z,101056.53
2022-12-11T16:40:32.277Z,101070.53
2022-12-11T16:42:58.630Z,101065.88
2022-12-11T16:45:26.863Z,101059.91
2022-12-11T16:47:53.466Z,101049.06
2022-12-11T16:50:20.388Z,101062.38
2022-12-11T16:52:46.775Z,101057.22
2022-12-11T16:55:13.916Z,101065.78
2022-12-11T16:57:40.550Z,101068.34
2022-12-11T17:00:09.776Z,101065.38
2022-12-11T17:02:36.643Z,101060.47
2022-12-11T17:05:03.609Z,101059.53
2022-12-11T17:07:31.783Z,101045.25
2022-12-11T17:09:58.229Z,101051.81
2022-12-11T17:12:24.589Z,101065.66
2022-12-11T17:14:50.969Z,101064.84
2022-12-11T17:17:17.314Z,101053.97
2022-12-11T17:19:43.699Z,101047.72
2022-12-11T17:22:10.046Z,101062.50
2022-12-11T17:24:36.463Z,101052.75
2022-12-11T17:27:02.749Z,101065.53
2022-12-11T17:29:29.157Z,101055.75
2022-12-11T17:31:55.606Z,101054.63
2022-12-11T17:34:21.905Z,101070.25
2022-12-11T17:36:48.302Z,101057.47
2022-12-11T17:39:14.729Z,101067.28
2022-12-11T17:41:41.063Z,101079.88
2022-12-11T17:44:07.512Z,101080.41
2022-12-11T17:46:33.869Z,101076.19
2022-12-11T17:49:03.568Z,101079.75
2022-12-11T17:51:29.924Z,101062.50
2022-12-11T17:53:57.139Z,101069.69
2022-12-11T17:56:24.631Z,101069.44
2022-12-11T17:58:51.395Z,101072.94
2022-12-11T18:01:18.180Z,101076.91
2022-12-11T18:03:44.677Z,101085.72
2022-12-11T18:06:12.325Z,101090.88
2022-12-11T18:08:39.467Z,101085.72
2022-12-11T18:11:14.944Z,101080.00
2022-12-11T18:13:42.561Z,101083.94
2022-12-11T18:16:14.371Z,101085.16
2022-12-11T18:18:40.802Z,101080.00
2022-12-11T18:21:07.443Z,101084.34
2022-12-11T18:23:34.269Z,101077.00
2022-12-11T18:26:01.530Z,101072.25
2022-12-11T18:28:27.886Z,101063.97
2022-12-11T18:30:54.318Z,101064.53
2022-12-11T18:33:20.640Z,101082.56
2022-12-11T18:35:49.734Z,101065.88
2022-12-11T18:38:16.102Z,101084.88
2022-12-11T18:40:42.707Z,101080.00
2022-12-11T18:43:09.073Z,101062.50
2022-12-11T18:45:35.494Z,101057.84
2022-12-11T18:48:01.852Z,101071.03
2022-12-11T18:50:28.206Z,101066.94
2022-12-11T18:52:55.194Z,101068.44
2022-12-11T18:55:21.603Z,101067.75
2022-12-11T18:57:48.038Z,101079.69
2022-12-11T19:00:16.989Z,101083.13
2022-12-11T19:02:43.344Z,101069.09
2022-12-11T19:05:11.328Z,101065.44
2022-12-11T19:07:38.057Z,101068.16
2022-12-11T19:10:05.064Z,101061.25
2022-12-11T19:12:31.466Z,101076.19
2022-12-11T19:14:57.846Z,101077.97
2022-12-11T19:17:24.198Z,101066.41
2022-12-11T19:19:50.566Z,101058.00
2022-12-11T19:22:16.919Z,101067.09
2022-12-11T19:24:43.253Z,101082.69
2022-12-11T19:27:13.524Z,101062.19
2022-12-11T19:29:40.329Z,101073.84
2022-12-11T19:32:06.571Z,101079.44
2022-12-11T19:34:32.929Z,101069.09
2022-12-11T19:36:59.295Z,101069.66
2022-12-11T19:39:25.822Z,101067.75
2022-12-11T19:41:52.097Z,101088.09
2022-12-11T19:44:18.458Z,101089.59
2022-12-11T19:46:45.009Z,101089.75
2022-12-11T19:49:12.290Z,101091.38
2022-12-11T19:51:40.038Z,101095.72
2022-12-11T19:54:07.990Z,101095.44
2022-12-11T19:56:34.845Z,101093.66
2022-12-11T19:59:07.022Z,101094.47
2022-12-11T20:01:36.421Z,101097.19
2022-12-11T20:04:09.029Z,101098.69
2022-12-11T20:06:37.164Z,101097.06
2022-12-11T20:09:05.355Z,101085.66
2022-12-11T20:11:33.103Z,101103.84
2022-12-11T20:13:59.867Z,101077.78
2022-12-11T20:16:46.175Z,101091.75
2022-12-11T20:19:12.893Z,101089.28
2022-12-11T20:21:39.133Z,101095.13
2022-12-11T20:24:05.778Z,101082.06
2022-12-11T20:26:32.165Z,101089.97
2022-12-11T20:28:58.465Z,101094.59
2022-12-11T20:31:25.873Z,101079.38
2022-12-11T20:33:53.254Z,101091.34
2022-12-11T20:36:21.329Z,101084.69
2022-12-11T20:38:47.925Z,101067.72
2022-12-11T20:41:18.121Z,101080.34
2022-12-11T20:43:46.995Z,101076.13
2022-12-11T20:46:15.068Z,101080.06
2022-12-11T20:48:43.093Z,101084.69
2022-12-11T20:51:11.467Z,101090.13
2022-12-11T20:53:38.519Z,101089.16
2022-12-11T20:56:13.989Z,101087.03
2022-12-11T20:58:41.147Z,101078.06
2022-12-11T21:01:07.689Z,101073.31
2022-12-11T21:03:38.892Z,101098.13
2022-12-11T21:06:20.210Z,101087.03
2022-12-11T21:08:49.580Z,101101.97
2022-12-11T21:11:16.297Z,101086.34
2022-12-11T21:13:45.659Z,101103.56
2022-12-11T21:16:12.319Z,101106.03
2022-12-11T21:18:39.423Z,101099.38
2022-12-11T21:21:06.153Z,101101.69
2022-12-11T21:23:32.805Z,101091.34
2022-12-11T21:25:59.591Z,101087.97
2022-12-11T21:28:29.332Z,101093.53
2022-12-11T21:31:04.188Z,101103.31
2022-12-11T21:33:31.019Z,101103.19
2022-12-11T21:35:58.921Z,101094.63
2022-12-11T21:38:25.611Z,101083.47
2022-12-11T21:40:52.435Z,101103.31
2022-12-11T21:43:19.188Z,101091.09
2022-12-11T21:46:05.019Z,101091.78
2022-12-11T21:48:31.652Z,101089.63
2022-12-11T21:51:06.105Z,101094.09
2022-12-11T21:53:32.608Z,101088.94
2022-12-11T21:55:58.981Z,101093.69
2022-12-11T21:58:25.359Z,101099.53
2022-12-11T22:00:51.712Z,101094.91
2022-12-11T22:03:18.057Z,101104.94
2022-12-11T22:05:44.453Z,101096.81
2022-12-11T22:08:10.880Z,101111.75
2022-12-11T22:10:37.238Z,101106.84
2022-12-11T22:13:03.760Z,101100.06
2022-12-11T22:15:30.162Z,101101.16
2022-12-11T22:17:56.541Z,101091.22
2022-12-11T22:20:23.113Z,101107.66
2022-12-11T22:22:49.453Z,101109.69
2022-12-11T22:25:25.795Z,101111.31
2022-12-11T22:27:52.143Z,101104.78
2022-12-11T22:30:18.657Z,101104.78
2022-12-11T22:32:44.989Z,101115.94
2022-12-11T22:35:11.530Z,101100.31
2022-12-11T22:37:38.165Z,101108.72
2022-12-11T22:40:05.357Z,101112.00
2022-12-11T22:42:31.733Z,101111.19
2022-12-11T22:44:58.041Z,101116.09
2022-12-11T22:47:24.378Z,101104.66
2022-12-11T22:49:50.760Z,101106.44
2022-12-11T22:52:17.192Z,101116.34
2022-12-11T22:54:43.430Z,101124.63
2022-12-11T22:57:09.765Z,101116.06
2022-12-11T22:59:36.663Z,101122.81
2022-12-11T23:02:03.325Z,101128.41
2022-12-11T23:04:29.793Z,101133.28
2022-12-11T23:06:56.185Z,101113.47
2022-12-11T23:09:22.745Z,101125.84
2022-12-11T23:11:49.149Z,101115.78
2022-12-11T23:14:17.654Z,101121.78
2022-12-11T23:16:44.761Z,101133.56
2022-12-11T23:19:12.183Z,101120.38
2022-12-11T23:21:38.996Z,101106.41
2022-12-11T23:24:05.898Z,101114.00
2022-12-11T23:26:32.550Z,101119.84
2022-12-11T23:28:59.782Z,101119.88
2022-12-11T23:31:27.392Z,101105.19
2022-12-11T23:33:54.114Z,101106.44
2022-12-11T23:36:20.947Z,101126.09
2022-12-11T23:38:54.104Z,101127.06
2022-12-11T23:41:21.456Z,101115.38
2022-12-11T23:43:47.852Z,101117.91
2022-12-11T23:46:15.752Z,101136.81
2022-12-11T23:48:42.665Z,101131.88
2022-12-11T23:51:12.756Z,101132.72
2022-12-11T23:53:39.190Z,101126.56
2022-12-11T23:56:06.718Z,101135.31
2022-12-11T23:58:36.878Z,101130.41
